Time;durP1;ratioP1;P1;durP2;ratioP2;P2;SDS_P1;SDS_P2;PMS_P1;PMS_P2;Temp;Humidity;BMP_temperature;BMP_pressure;BME280_temperature;BME280_humidity;BME280_pressure;Samples;Min_cycle;Max_cycle;Signal;HPM_P1;HPM_P2
2023/09/25 00:01:35;;;;;;;7.70;2.45;;;12.60;99.90;;;;;;5046710;28;20519;-70
2023/09/25 00:04:01;;;;;;;8.40;2.40;;;12.60;99.90;;;;;;5013175;28;187268;-70
2023/09/25 00:06:28;;;;;;;8.85;2.60;;;12.60;99.90;;;;;;5051487;28;20495;-70
2023/09/25 00:08:55;;;;;;;9.98;2.28;;;12.70;99.90;;;;;;5002725;28;110149;-70
2023/09/25 00:11:21;;;;;;;10.48;2.25;;;12.70;99.90;;;;;;5061810;28;20059;-69
2023/09/25 00:13:48;;;;;;;9.85;2.30;;;12.80;99.90;;;;;;5015037;28;89858;-70
2023/09/25 00:16:18;;;;;;;8.20;2.50;;;12.80;99.90;;;;;;5055210;28;20064;-70
2023/09/25 00:18:44;;;;;;;8.30;2.38;;;12.80;99.90;;;;;;5009394;28;252361;-70
2023/09/25 00:21:10;;;;;;;7.25;2.22;;;12.90;99.90;;;;;;5041562;28;20400;-69
2023/09/25 00:23:38;;;;;;;7.88;2.20;;;12.90;99.90;;;;;;5013667;28;174689;-70
2023/09/25 00:26:06;;;;;;;9.98;2.53;;;12.90;99.90;;;;;;5049929;28;20068;-69
2023/09/25 00:28:32;;;;;;;10.40;2.30;;;12.90;99.90;;;;;;5009843;28;191336;-70
2023/09/25 00:30:59;;;;;;;7.82;2.28;;;12.90;99.90;;;;;;5054410;28;20527;-69
2023/09/25 00:33:26;;;;;;;9.77;2.25;;;12.90;99.90;;;;;;5014569;28;150697;-70
2023/09/25 00:35:56;;;;;;;9.05;2.40;;;12.90;99.90;;;;;;5056950;28;20057;-70
2023/09/25 00:38:22;;;;;;;9.35;2.50;;;12.90;99.90;;;;;;5004715;28;227452;-69
2023/09/25 00:40:48;;;;;;;8.32;2.70;;;12.80;99.90;;;;;;5055987;28;20056;-70
2023/09/25 00:43:14;;;;;;;8.32;2.50;;;12.80;99.90;;;;;;5011302;28;101978;-70
2023/09/25 00:45:42;;;;;;;8.52;2.42;;;12.80;99.90;;;;;;5058589;28;20060;-70
2023/09/25 00:48:29;;;;;;;9.65;2.30;;;12.80;99.90;;;;;;4997197;28;201633;-70
2023/09/25 00:50:59;;;;;;;9.68;2.70;;;12.70;99.90;;;;;;5064824;28;20495;-71
2023/09/25 00:53:26;;;;;;;9.85;2.72;;;12.70;99.90;;;;;;5000928;28;125343;-69
2023/09/25 00:55:54;;;;;;;8.98;2.78;;;12.60;99.90;;;;;;5065780;28;20056;-71
2023/09/25 00:58:20;;;;;;;9.40;2.50;;;12.60;99.90;;;;;;5023588;28;106820;-70
2023/09/25 01:00:46;;;;;;;10.32;3.03;;;12.60;99.90;;;;;;5049969;28;20057;-71
2023/09/25 01:03:13;;;;;;;8.15;2.70;;;12.60;99.90;;;;;;5012790;28;280594;-69
2023/09/25 01:05:39;;;;;;;11.20;3.00;;;12.50;99.90;;;;;;5058621;28;20065;-70
2023/09/25 01:08:07;;;;;;;7.85;2.70;;;12.50;99.90;;;;;;5021339;28;37088;-70
2023/09/25 01:10:33;;;;;;;9.27;3.20;;;12.50;99.90;;;;;;5070694;28;20044;-70
2023/09/25 01:13:01;;;;;;;8.85;3.10;;;12.50;99.90;;;;;;5033931;28;21117;-69
2023/09/25 01:15:27;;;;;;;7.82;2.95;;;12.50;99.90;;;;;;5007328;28;20049;-70
2023/09/25 01:17:53;;;;;;;9.57;2.97;;;12.40;99.90;;;;;;5029518;28;20056;-72
2023/09/25 01:20:19;;;;;;;11.10;3.25;;;12.40;99.90;;;;;;5038895;28;42034;-69
2023/09/25 01:22:46;;;;;;;9.25;3.05;;;12.40;99.90;;;;;;5028793;28;20414;-70
2023/09/25 01:25:13;;;;;;;10.13;3.00;;;12.40;99.90;;;;;;5053507;28;226259;-70
2023/09/25 01:27:44;;;;;;;9.00;3.10;;;12.40;99.90;;;;;;5036190;28;20502;-69
2023/09/25 01:30:13;;;;;;;8.57;3.20;;;12.30;99.90;;;;;;5052265;28;174973;-70
2023/09/25 01:32:42;;;;;;;9.13;3.03;;;12.30;99.90;;;;;;5044003;28;20056;-69
2023/09/25 01:35:26;;;;;;;9.27;3.00;;;12.30;99.90;;;;;;5035332;28;75365;-70
2023/09/25 01:37:57;;;;;;;9.07;3.22;;;12.30;99.90;;;;;;5028885;28;20053;-69
2023/09/25 01:40:24;;;;;;;11.57;3.75;;;12.20;99.90;;;;;;5042053;28;102288;-69
2023/09/25 01:42:50;;;;;;;9.55;3.30;;;12.20;99.90;;;;;;5032305;28;20064;-70
2023/09/25 01:45:19;;;;;;;9.55;3.60;;;12.20;99.90;;;;;;5043054;28;119942;-69
2023/09/25 01:47:50;;;;;;;9.05;3.20;;;12.10;99.90;;;;;;5027644;28;20419;-71
2023/09/25 01:50:26;;;;;;;8.73;3.35;;;12.10;99.90;;;;;;5032643;28;52240;-70
2023/09/25 01:52:57;;;;;;;12.82;3.50;;;12.10;99.90;;;;;;5031778;28;20503;-71
2023/09/25 01:55:27;;;;;;;8.10;3.08;;;12.10;99.90;;;;;;4984539;28;227569;-69
2023/09/25 01:57:53;;;;;;;9.05;3.30;;;12.00;99.90;;;;;;5030179;28;20060;-70
2023/09/25 02:00:19;;;;;;;8.73;3.00;;;12.10;99.90;;;;;;5027237;28;150509;-70
2023/09/25 02:02:46;;;;;;;9.10;3.40;;;12.00;99.90;;;;;;5033105;28;20040;-71
2023/09/25 02:05:12;;;;;;;11.65;3.47;;;12.00;99.90;;;;;;5042455;28;102123;-70
2023/09/25 02:07:38;;;;;;;10.60;3.33;;;12.00;99.90;;;;;;5046936;28;20056;-69
2023/09/25 02:10:06;;;;;;;8.48;3.17;;;12.00;99.90;;;;;;5029521;28;119742;-70
2023/09/25 02:12:32;;;;;;;8.80;2.95;;;12.00;99.90;;;;;;5058515;28;20059;-70
2023/09/25 02:15:00;;;;;;;9.05;3.33;;;11.90;99.90;;;;;;5013797;28;20061;-70
2023/09/25 02:17:29;;;;;;;8.85;3.15;;;11.90;99.90;;;;;;5058132;28;20063;-69
2023/09/25 02:20:12;;;;;;;10.73;3.80;;;11.90;99.90;;;;;;5000240;28;149299;-70
2023/09/25 02:22:39;;;;;;;8.00;3.10;;;11.90;99.90;;;;;;5047097;28;20418;-70
2023/09/25 02:25:05;;;;;;;10.52;3.50;;;11.80;99.90;;;;;;5017823;28;20056;-71
2023/09/25 02:27:31;;;;;;;9.68;3.33;;;11.80;99.90;;;;;;5041902;28;20111;-70
2023/09/25 02:29:58;;;;;;;10.60;3.63;;;11.80;99.90;;;;;;5024190;28;194459;-70
2023/09/25 02:32:24;;;;;;;9.98;3.72;;;11.80;99.90;;;;;;5059583;28;20410;-70
2023/09/25 02:34:50;;;;;;;9.73;3.70;;;11.80;99.90;;;;;;5017687;28;85747;-70
2023/09/25 02:37:17;;;;;;;8.38;3.35;;;11.70;99.90;;;;;;5058890;28;20067;-70
2023/09/25 02:39:43;;;;;;;8.75;3.33;;;11.70;99.90;;;;;;5012295;28;47984;-71
2023/09/25 02:42:09;;;;;;;9.88;3.50;;;11.70;99.90;;;;;;5065610;28;20442;-70
2023/09/25 02:44:35;;;;;;;11.25;3.72;;;11.70;99.90;;;;;;5006679;28;114212;-70
2023/09/25 02:47:01;;;;;;;9.20;3.30;;;11.70;99.90;;;;;;5059653;28;20414;-70
2023/09/25 02:49:27;;;;;;;9.93;3.70;;;11.70;99.90;;;;;;5010352;28;65839;-70
2023/09/25 02:51:53;;;;;;;9.07;3.63;;;11.80;99.90;;;;;;5058491;28;20510;-71
2023/09/25 02:54:19;;;;;;;10.13;3.63;;;11.70;99.90;;;;;;4981931;28;158790;-70
2023/09/25 02:56:46;;;;;;;10.00;3.95;;;11.70;99.90;;;;;;5052825;28;20555;-71
2023/09/25 02:59:12;;;;;;;9.55;3.50;;;11.70;99.90;;;;;;5003546;28;75980;-69
2023/09/25 03:01:38;;;;;;;9.77;3.45;;;11.70;99.90;;;;;;5062237;28;20638;-70
2023/09/25 03:04:04;;;;;;;9.63;3.85;;;11.70;99.90;;;;;;5014658;28;194964;-69
2023/09/25 03:06:31;;;;;;;8.95;3.72;;;11.70;99.90;;;;;;5057963;28;20045;-70
2023/09/25 03:08:57;;;;;;;9.88;3.50;;;11.80;99.90;;;;;;5011067;28;183850;-69
2023/09/25 03:11:23;;;;;;;10.93;3.65;;;11.70;99.90;;;;;;5048353;28;20045;-70
2023/09/25 03:13:50;;;;;;;11.32;3.83;;;11.70;99.90;;;;;;5001959;28;177423;-70
2023/09/25 03:16:16;;;;;;;11.10;3.90;;;11.70;99.90;;;;;;5056100;28;20072;-70
2023/09/25 03:18:42;;;;;;;10.73;3.60;;;11.80;99.90;;;;;;5004725;28;176538;-70
2023/09/25 03:21:13;;;;;;;10.80;3.50;;;11.70;99.90;;;;;;5057325;28;20044;-69
2023/09/25 03:23:40;;;;;;;11.73;3.47;;;11.80;99.90;;;;;;5012749;28;49940;-70
2023/09/25 03:26:16;;;;;;;10.32;3.78;;;11.80;99.90;;;;;;5022859;28;20416;-70
2023/09/25 03:28:44;;;;;;;8.82;3.65;;;11.80;99.90;;;;;;5013586;28;69947;-69
2023/09/25 03:31:11;;;;;;;9.15;3.65;;;11.80;99.90;;;;;;5048682;28;20056;-69
2023/09/25 03:33:38;;;;;;;9.45;3.70;;;11.80;99.90;;;;;;5018481;28;20049;-70
2023/09/25 03:36:05;;;;;;;9.27;3.72;;;11.80;99.90;;;;;;5057464;28;20049;-70
2023/09/25 03:38:32;;;;;;;11.52;3.72;;;11.80;99.90;;;;;;5020844;28;40388;-71
2023/09/25 03:40:58;;;;;;;12.30;3.70;;;11.80;99.90;;;;;;5062704;28;20055;-70
2023/09/25 03:43:24;;;;;;;10.80;3.30;;;11.90;99.90;;;;;;5019805;28;139707;-70
2023/09/25 03:45:50;;;;;;;8.77;3.05;;;11.90;99.90;;;;;;5053335;28;20423;-69
2023/09/25 03:48:16;;;;;;;10.43;3.50;;;11.90;99.90;;;;;;5010909;28;88612;-70
2023/09/25 03:50:42;;;;;;;10.30;3.65;;;11.90;99.90;;;;;;5051306;28;20053;-70
2023/09/25 03:53:10;;;;;;;10.52;3.40;;;11.90;99.90;;;;;;5003471;28;147872;-70
2023/09/25 03:55:38;;;;;;;8.52;3.15;;;11.90;99.90;;;;;;5049167;28;20068;-70
2023/09/25 03:58:04;;;;;;;8.18;3.05;;;12.00;99.90;;;;;;5024208;28;28885;-70
2023/09/25 04:00:30;;;;;;;8.77;3.63;;;12.00;99.90;;;;;;5051870;28;20071;-71
2023/09/25 04:02:56;;;;;;;10.17;3.60;;;12.10;99.90;;;;;;5016356;28;114987;-70
2023/09/25 04:05:23;;;;;;;9.10;3.42;;;12.10;99.90;;;;;;5074167;28;20063;-70
2023/09/25 04:07:49;;;;;;;9.02;3.33;;;12.20;99.90;;;;;;5015796;28;137943;-70
2023/09/25 04:10:15;;;;;;;10.75;3.65;;;12.10;99.90;;;;;;5055191;28;20054;-70
2023/09/25 04:12:41;;;;;;;8.38;3.15;;;12.20;99.90;;;;;;5031669;28;20059;-69
2023/09/25 04:15:12;;;;;;;9.43;3.50;;;12.20;99.90;;;;;;5046715;28;20527;-70
2023/09/25 04:17:39;;;;;;;10.20;3.35;;;12.30;99.90;;;;;;5052147;28;20147;-70
2023/09/25 04:20:08;;;;;;;9.85;3.42;;;12.30;99.90;;;;;;5026242;28;20071;-69
2023/09/25 04:22:37;;;;;;;9.05;3.55;;;12.30;99.90;;;;;;5062863;28;20061;-71
2023/09/25 04:25:08;;;;;;;10.32;3.65;;;12.30;99.90;;;;;;5007054;28;20099;-71
2023/09/25 04:27:35;;;;;;;9.45;3.47;;;12.40;99.90;;;;;;5063072;28;20064;-69
2023/09/25 04:30:08;;;;;;;11.13;3.70;;;12.30;99.90;;;;;;5005372;28;20055;-69
2023/09/25 04:32:34;;;;;;;11.85;3.53;;;12.40;99.90;;;;;;5065602;28;20052;-70
2023/09/25 04:35:01;;;;;;;8.90;3.55;;;12.40;99.90;;;;;;5001084;28;20493;-71
2023/09/25 04:37:27;;;;;;;10.13;3.53;;;12.40;99.90;;;;;;5058204;28;20503;-71
2023/09/25 04:39:53;;;;;;;10.57;3.40;;;12.30;99.90;;;;;;5010698;28;244229;-70
2023/09/25 04:42:19;;;;;;;9.20;3.78;;;12.40;99.90;;;;;;5059588;28;20063;-72
2023/09/25 04:44:45;;;;;;;9.52;3.45;;;12.40;99.90;;;;;;5018101;28;49856;-70
2023/09/25 04:47:11;;;;;;;10.43;3.60;;;12.30;99.90;;;;;;5057170;28;20059;-71
2023/09/25 04:49:37;;;;;;;10.02;3.78;;;12.30;99.90;;;;;;5007750;28;24201;-71
2023/09/25 04:52:03;;;;;;;10.15;3.50;;;12.40;99.90;;;;;;5061223;28;20044;-69
2023/09/25 04:54:31;;;;;;;8.15;3.50;;;12.30;99.90;;;;;;4987899;28;178264;-70
2023/09/25 04:56:57;;;;;;;10.27;3.45;;;12.30;99.90;;;;;;5062066;28;20691;-69
2023/09/25 04:59:23;;;;;;;10.23;3.33;;;12.30;99.90;;;;;;5012346;28;168717;-70
2023/09/25 05:01:50;;;;;;;8.38;3.22;;;12.30;99.90;;;;;;5044524;28;20060;-72
2023/09/25 05:04:16;;;;;;;9.57;3.45;;;12.30;99.90;;;;;;5016829;28;20459;-70
2023/09/25 05:06:42;;;;;;;9.95;3.20;;;12.30;99.90;;;;;;5061128;28;20052;-71
2023/09/25 05:09:11;;;;;;;8.50;3.20;;;12.30;99.90;;;;;;5022517;28;20048;-70
2023/09/25 05:11:37;;;;;;;8.88;3.22;;;12.30;99.90;;;;;;5061865;28;20048;-69
2023/09/25 05:14:05;;;;;;;9.25;3.38;;;12.30;99.90;;;;;;5021281;28;32420;-70
2023/09/25 05:16:31;;;;;;;8.98;3.28;;;12.30;99.90;;;;;;5038888;28;20553;-71
2023/09/25 05:18:59;;;;;;;11.05;3.42;;;12.30;99.90;;;;;;5009202;28;36623;-70
2023/09/25 05:21:25;;;;;;;10.77;3.45;;;12.30;99.90;;;;;;5052035;28;20533;-71
2023/09/25 05:23:51;;;;;;;9.57;3.38;;;12.30;99.90;;;;;;5014658;28;149583;-70
2023/09/25 05:26:17;;;;;;;9.18;3.28;;;12.30;99.90;;;;;;5060119;28;20048;-70
2023/09/25 05:28:43;;;;;;;9.82;3.50;;;12.30;99.90;;;;;;5003601;28;170177;-70
2023/09/25 05:31:09;;;;;;;10.20;3.50;;;12.30;99.90;;;;;;5046182;28;20049;-69
2023/09/25 05:33:36;;;;;;;10.48;3.25;;;12.30;99.90;;;;;;4988927;28;222053;-70
2023/09/25 05:36:02;;;;;;;9.48;3.17;;;12.30;99.90;;;;;;5035459;28;20052;-69
2023/09/25 05:38:28;;;;;;;8.85;2.97;;;12.30;99.90;;;;;;5025482;28;20059;-70
2023/09/25 05:40:54;;;;;;;9.55;3.70;;;12.30;99.90;;;;;;5058507;28;20419;-70
2023/09/25 05:43:20;;;;;;;9.63;3.30;;;12.30;99.90;;;;;;5018825;28;30871;-70
2023/09/25 05:45:47;;;;;;;11.07;3.50;;;12.30;99.90;;;;;;5058198;28;20052;-70
2023/09/25 05:48:13;;;;;;;8.95;3.30;;;12.30;99.90;;;;;;5015955;28;20084;-70
2023/09/25 05:50:39;;;;;;;10.15;3.60;;;12.30;99.90;;;;;;5055100;28;20048;-70
2023/09/25 05:53:05;;;;;;;10.80;3.60;;;12.30;99.90;;;;;;5002432;28;222043;-70
2023/09/25 05:55:31;;;;;;;10.88;3.63;;;12.40;99.90;;;;;;5054561;28;20560;-69
2023/09/25 05:57:57;;;;;;;8.88;3.60;;;12.40;99.90;;;;;;5019281;28;29845;-70
2023/09/25 06:00:23;;;;;;;9.50;3.20;;;12.40;99.90;;;;;;5050786;28;20052;-72
2023/09/25 06:02:50;;;;;;;9.60;3.33;;;12.40;99.90;;;;;;5008697;28;248917;-72
2023/09/25 06:05:16;;;;;;;9.02;3.22;;;12.50;99.90;;;;;;5069627;28;20040;-71
2023/09/25 06:07:43;;;;;;;10.80;3.50;;;12.40;99.90;;;;;;5018413;28;154285;-70
2023/09/25 06:10:11;;;;;;;9.68;3.30;;;12.50;99.90;;;;;;5075221;28;20051;-71
2023/09/25 06:12:39;;;;;;;8.80;3.05;;;12.50;99.90;;;;;;5049446;28;20426;-71
2023/09/25 06:15:09;;;;;;;8.68;3.53;;;12.60;99.90;;;;;;5015930;28;20044;-71
2023/09/25 06:17:36;;;;;;;9.63;3.08;;;12.60;99.90;;;;;;5058555;28;20052;-70
2023/09/25 06:20:05;;;;;;;12.32;3.60;;;12.60;99.90;;;;;;5011386;28;20056;-70
2023/09/25 06:22:34;;;;;;;10.52;3.60;;;12.70;99.90;;;;;;5060034;28;20491;-71
2023/09/25 06:25:00;;;;;;;8.48;3.45;;;12.70;99.90;;;;;;5006341;28;20087;-71
2023/09/25 06:27:27;;;;;;;9.57;3.40;;;12.70;99.90;;;;;;5060194;28;20060;-72
2023/09/25 06:29:53;;;;;;;9.23;2.80;;;12.80;99.90;;;;;;5017546;28;42977;-71
2023/09/25 06:32:20;;;;;;;8.02;2.97;;;12.80;99.90;;;;;;5056133;28;20064;-72
2023/09/25 06:34:46;;;;;;;9.32;3.10;;;12.80;99.90;;;;;;4997917;28;142228;-71
2023/09/25 06:37:12;;;;;;;9.48;2.90;;;12.90;99.90;;;;;;5055244;28;20059;-71
2023/09/25 06:39:38;;;;;;;9.73;3.05;;;13.00;99.90;;;;;;5013659;28;141252;-72
2023/09/25 06:42:04;;;;;;;8.23;2.80;;;13.10;99.90;;;;;;5059655;28;20067;-71
2023/09/25 06:44:30;;;;;;;10.27;3.15;;;13.10;99.90;;;;;;5014854;28;209760;-71
2023/09/25 06:46:56;;;;;;;8.40;3.10;;;13.20;99.90;;;;;;5054892;28;20064;-70
2023/09/25 06:49:23;;;;;;;12.27;3.00;;;13.20;99.90;;;;;;5036416;28;31590;-71
2023/09/25 06:51:49;;;;;;;8.88;3.03;;;13.30;99.90;;;;;;5054955;28;20049;-70
2023/09/25 06:54:15;;;;;;;12.73;3.08;;;13.30;99.90;;;;;;5000236;28;200691;-70
2023/09/25 06:56:41;;;;;;;7.90;2.88;;;13.40;99.90;;;;;;5056371;28;20052;-71
2023/09/25 06:59:07;;;;;;;8.88;2.90;;;13.50;99.90;;;;;;5009763;28;122085;-71
2023/09/25 07:01:33;;;;;;;8.48;2.72;;;13.50;99.90;;;;;;5063705;28;20060;-71
2023/09/25 07:03:59;;;;;;;8.70;2.70;;;13.50;99.90;;;;;;5009118;28;101169;-71
2023/09/25 07:06:26;;;;;;;8.10;2.70;;;13.60;99.90;;;;;;5051299;28;20423;-70
2023/09/25 07:08:52;;;;;;;9.63;3.13;;;13.70;99.90;;;;;;5026920;28;31362;-71
2023/09/25 07:11:18;;;;;;;9.82;2.90;;;13.70;99.90;;;;;;5065052;28;20163;-71
2023/09/25 07:13:44;;;;;;;9.90;2.92;;;13.70;99.90;;;;;;5004302;28;146797;-71
2023/09/25 07:16:11;;;;;;;9.38;2.90;;;13.70;99.90;;;;;;5044583;28;20537;-71
2023/09/25 07:18:37;;;;;;;7.90;2.70;;;13.80;99.90;;;;;;5003130;28;241473;-71
2023/09/25 07:21:05;;;;;;;10.35;3.17;;;13.90;99.90;;;;;;5053762;28;20396;-70
2023/09/25 07:23:31;;;;;;;7.90;2.92;;;13.90;99.90;;;;;;5019135;28;104288;-71
2023/09/25 07:26:09;;;;;;;8.13;2.90;;;13.90;99.90;;;;;;5057651;28;20037;-72
2023/09/25 07:28:36;;;;;;;9.23;3.15;;;14.00;99.90;;;;;;5010920;28;157016;-71
2023/09/25 07:31:02;;;;;;;10.43;3.33;;;14.00;99.90;;;;;;5052052;28;20608;-72
2023/09/25 07:33:29;;;;;;;9.70;3.10;;;14.10;99.90;;;;;;5025318;28;62260;-71
2023/09/25 07:35:56;;;;;;;9.45;3.40;;;14.20;99.90;;;;;;5065844;28;20695;-71
2023/09/25 07:38:22;;;;;;;9.32;3.17;;;14.30;99.90;;;;;;5007187;28;241907;-70
2023/09/25 07:40:49;;;;;;;9.52;3.08;;;14.30;99.90;;;;;;5065433;28;20057;-71
2023/09/25 07:43:19;;;;;;;12.95;3.15;;;14.50;99.90;;;;;;5018612;28;20051;-72
2023/09/25 07:45:49;;;;;;;9.82;3.05;;;14.50;99.90;;;;;;5064771;28;20074;-71
2023/09/25 07:48:16;;;;;;;9.25;2.83;;;14.70;99.90;;;;;;5016228;28;95182;-70
2023/09/25 07:50:45;;;;;;;11.18;3.00;;;14.80;99.90;;;;;;5068697;28;20065;-71
2023/09/25 07:53:12;;;;;;;10.48;3.00;;;14.90;99.90;;;;;;5003535;28;128122;-70
2023/09/25 07:55:40;;;;;;;9.75;2.95;;;15.00;99.90;;;;;;5068274;28;20060;-71
2023/09/25 07:58:07;;;;;;;8.95;2.90;;;15.10;99.90;;;;;;5008043;28;241097;-71
2023/09/25 08:00:40;;;;;;;10.27;3.10;;;15.10;99.90;;;;;;5046496;28;20060;-71
2023/09/25 08:03:06;;;;;;;9.05;3.00;;;15.20;99.90;;;;;;5017636;28;173654;-71
2023/09/25 08:05:34;;;;;;;9.57;3.15;;;15.20;99.90;;;;;;5065324;28;20063;-71
2023/09/25 08:08:00;;;;;;;7.90;2.95;;;15.30;99.90;;;;;;5028502;28;39996;-70
2023/09/25 08:10:26;;;;;;;8.77;3.22;;;15.30;99.90;;;;;;5056658;28;20045;-71
2023/09/25 08:12:53;;;;;;;10.57;2.72;;;15.40;99.90;;;;;;5035931;28;20063;-71
2023/09/25 08:15:19;;;;;;;10.95;3.33;;;15.40;99.90;;;;;;5051018;28;184744;-70
2023/09/25 08:17:47;;;;;;;8.52;2.75;;;15.50;99.90;;;;;;5031904;28;20742;-71
2023/09/25 08:20:20;;;;;;;8.32;2.90;;;15.50;99.90;;;;;;5046950;28;50518;-71
2023/09/25 08:22:48;;;;;;;13.05;2.92;;;15.60;99.90;;;;;;5037138;28;20057;-72
2023/09/25 08:25:15;;;;;;;11.23;2.80;;;15.70;99.90;;;;;;5045181;28;194195;-73
2023/09/25 08:27:41;;;;;;;9.02;3.20;;;15.60;99.90;;;;;;5037642;28;20060;-70
2023/09/25 08:30:08;;;;;;;9.18;3.00;;;15.80;99.90;;;;;;5032749;28;235908;-71
2023/09/25 08:32:34;;;;;;;9.68;3.20;;;15.90;99.90;;;;;;5066419;28;20053;-70
2023/09/25 08:35:01;;;;;;;11.20;3.10;;;16.00;99.90;;;;;;5003298;28;87862;-70
2023/09/25 08:37:28;;;;;;;9.20;2.92;;;16.10;99.90;;;;;;5063331;28;20045;-71
2023/09/25 08:39:55;;;;;;;8.85;2.95;;;16.30;99.90;;;;;;5008743;28;227465;-70
2023/09/25 08:42:23;;;;;;;8.68;3.00;;;16.40;99.90;;;;;;5059660;28;20048;-71
2023/09/25 08:44:57;;;;;;;10.70;2.78;;;16.90;99.90;;;;;;4968280;28;281214;-70
2023/09/25 08:47:24;;;;;;;8.55;2.90;;;17.20;99.90;;;;;;5054784;28;20540;-72
2023/09/25 08:49:51;;;;;;;12.32;2.75;;;17.20;99.90;;;;;;5006592;28;66009;-71
2023/09/25 08:52:18;;;;;;;10.55;2.70;;;17.20;99.90;;;;;;5062814;28;20049;-71
2023/09/25 08:54:46;;;;;;;7.32;2.45;;;17.40;99.90;;;;;;4996589;28;175218;-71
2023/09/25 08:57:12;;;;;;;8.50;2.40;;;17.60;99.90;;;;;;5058939;28;20864;-70
2023/09/25 08:59:41;;;;;;;9.13;2.70;;;18.30;99.70;;;;;;5019132;28;122738;-70
2023/09/25 09:02:08;;;;;;;10.20;2.70;;;18.80;99.90;;;;;;5062457;28;20060;-71
2023/09/25 09:04:35;;;;;;;8.93;2.50;;;19.20;99.50;;;;;;5018623;28;84184;-71
2023/09/25 09:07:05;;;;;;;7.80;2.40;;;19.10;99.40;;;;;;5059784;28;20053;-71
2023/09/25 09:09:32;;;;;;;7.45;2.30;;;19.30;99.20;;;;;;5007926;28;184188;-71
2023/09/25 09:11:58;;;;;;;8.45;2.45;;;19.40;98.70;;;;;;5055745;28;20051;-72
2023/09/25 09:14:44;;;;;;;9.88;2.40;;;19.60;97.90;;;;;;5020968;28;183398;-71
2023/09/25 09:17:11;;;;;;;9.48;2.58;;;19.80;97.40;;;;;;5054865;28;20056;-72
2023/09/25 09:19:46;;;;;;;7.43;2.20;;;19.90;97.30;;;;;;5001263;28;117180;-71
2023/09/25 09:22:13;;;;;;;10.13;2.33;;;20.00;96.70;;;;;;5057007;28;20071;-70
2023/09/25 09:24:41;;;;;;;9.88;2.20;;;20.00;97.20;;;;;;5013404;28;205142;-71
2023/09/25 09:27:08;;;;;;;9.57;2.50;;;19.90;97.00;;;;;;5057894;28;20060;-71
2023/09/25 09:29:38;;;;;;;7.95;2.42;;;19.80;97.00;;;;;;5029283;28;50562;-71
2023/09/25 09:32:05;;;;;;;7.88;2.20;;;19.60;96.60;;;;;;5059041;28;20391;-71
2023/09/25 09:34:32;;;;;;;8.43;2.35;;;19.60;96.50;;;;;;5010263;28;246954;-71
2023/09/25 09:37:00;;;;;;;9.23;2.08;;;19.80;96.30;;;;;;5064444;28;20053;-69
2023/09/25 09:39:28;;;;;;;9.80;2.10;;;20.10;95.90;;;;;;5011704;28;195963;-71
2023/09/25 09:41:57;;;;;;;9.00;2.30;;;20.40;96.30;;;;;;5055162;28;20418;-71
2023/09/25 09:44:23;;;;;;;10.13;2.40;;;20.90;95.90;;;;;;5019296;28;36657;-71
2023/09/25 09:46:52;;;;;;;9.07;2.25;;;20.90;95.90;;;;;;5063756;28;20053;-71
2023/09/25 09:49:22;;;;;;;7.22;2.03;;;21.00;95.20;;;;;;5009478;28;245731;-71
2023/09/25 09:51:52;;;;;;;7.78;2.17;;;21.30;95.30;;;;;;5068170;28;20059;-72
2023/09/25 09:54:21;;;;;;;6.93;1.83;;;21.30;95.50;;;;;;4994047;28;131361;-71
2023/09/25 09:56:48;;;;;;;10.20;2.33;;;21.30;94.70;;;;;;5060219;28;20075;-72
2023/09/25 09:59:16;;;;;;;8.95;2.33;;;21.30;94.80;;;;;;5013837;28;63393;-71
2023/09/25 10:01:50;;;;;;;10.35;2.20;;;21.20;95.40;;;;;;5057262;28;20051;-71
2023/09/25 10:04:16;;;;;;;9.35;2.10;;;21.50;94.70;;;;;;5017526;28;83589;-71
2023/09/25 10:06:48;;;;;;;7.50;1.90;;;21.50;94.50;;;;;;5058847;28;20056;-70
2023/09/25 10:09:15;;;;;;;8.00;2.28;;;21.60;94.40;;;;;;5027561;28;223396;-71
2023/09/25 10:11:43;;;;;;;7.45;2.10;;;21.60;94.30;;;;;;5054156;28;20059;-70
2023/09/25 10:14:09;;;;;;;7.32;1.90;;;21.90;94.80;;;;;;5014824;28;31231;-71
2023/09/25 10:16:55;;;;;;;8.20;1.98;;;22.20;94.30;;;;;;5048271;28;20506;-71
2023/09/25 10:19:21;;;;;;;9.13;2.20;;;22.00;93.60;;;;;;5007181;28;236617;-71
2023/09/25 10:22:11;;;;;;;8.95;2.35;;;21.90;94.50;;;;;;5059628;28;20423;-71
2023/09/25 10:24:37;;;;;;;7.60;1.90;;;22.10;93.40;;;;;;5002508;28;162109;-71
2023/09/25 10:27:04;;;;;;;6.90;1.70;;;22.30;93.80;;;;;;5058892;28;20069;-72
2023/09/25 10:29:30;;;;;;;6.75;2.00;;;22.20;94.20;;;;;;5001845;28;192268;-70
2023/09/25 10:31:57;;;;;;;7.93;1.90;;;22.20;93.70;;;;;;5057121;28;20053;-71
2023/09/25 10:34:26;;;;;;;7.75;1.63;;;22.10;93.50;;;;;;5005038;28;20547;-72
2023/09/25 10:36:59;;;;;;;7.22;1.88;;;22.40;94.60;;;;;;5061040;28;20582;-71
2023/09/25 10:39:27;;;;;;;8.02;2.00;;;22.40;93.60;;;;;;4994326;28;113125;-71
2023/09/25 10:42:13;;;;;;;8.55;1.80;;;22.20;94.40;;;;;;5058679;28;20060;-72
2023/09/25 10:44:40;;;;;;;7.30;1.90;;;22.30;93.40;;;;;;4994468;28;20049;-71
2023/09/25 10:47:07;;;;;;;7.57;1.90;;;22.50;94.10;;;;;;5060272;28;20049;-71
2023/09/25 10:49:37;;;;;;;6.30;1.83;;;22.30;93.90;;;;;;5008546;28;20046;-72
2023/09/25 10:52:04;;;;;;;8.65;1.90;;;22.50;93.50;;;;;;5054329;28;20064;-72
2023/09/25 10:54:31;;;;;;;7.50;2.20;;;22.20;93.40;;;;;;4987580;28;206220;-72
2023/09/25 10:57:02;;;;;;;7.72;2.00;;;22.50;93.60;;;;;;5059150;28;20048;-72
2023/09/25 10:59:29;;;;;;;8.43;2.03;;;22.80;93.10;;;;;;5035640;28;20040;-72
2023/09/25 11:01:55;;;;;;;7.50;1.73;;;23.00;93.50;;;;;;5059854;28;20503;-72
2023/09/25 11:04:21;;;;;;;7.25;1.90;;;23.20;93.00;;;;;;5021630;28;20039;-71
2023/09/25 11:06:47;;;;;;;6.65;2.00;;;23.60;93.20;;;;;;5056332;28;20064;-71
2023/09/25 11:09:18;;;;;;;7.57;2.20;;;24.10;92.90;;;;;;5006659;28;150941;-72
2023/09/25 11:11:46;;;;;;;6.43;1.90;;;24.10;91.30;;;;;;5058337;28;20093;-72
2023/09/25 11:14:13;;;;;;;8.07;1.80;;;23.90;92.10;;;;;;4987318;28;183401;-73
2023/09/25 11:16:40;;;;;;;7.97;2.08;;;24.00;92.10;;;;;;5056517;28;20052;-71
2023/09/25 11:19:10;;;;;;;8.40;2.10;;;23.50;91.90;;;;;;5015999;28;26824;-73
2023/09/25 11:21:37;;;;;;;7.13;2.03;;;23.70;92.10;;;;;;5052078;28;20072;-72
2023/09/25 11:24:10;;;;;;;6.93;1.80;;;24.00;92.70;;;;;;5011883;28;211878;-71
2023/09/25 11:26:37;;;;;;;7.22;1.90;;;24.20;91.40;;;;;;5063721;28;20060;-72
2023/09/25 11:29:10;;;;;;;7.68;2.08;;;24.50;92.00;;;;;;5010777;28;137335;-72
2023/09/25 11:31:37;;;;;;;7.65;2.30;;;24.60;91.50;;;;;;5055919;28;20045;-72
2023/09/25 11:34:07;;;;;;;12.57;2.00;;;24.50;91.60;;;;;;5019848;28;29075;-72
2023/09/25 11:36:34;;;;;;;8.77;1.80;;;24.70;91.40;;;;;;5047980;28;20408;-72
2023/09/25 11:39:03;;;;;;;7.32;1.90;;;24.90;91.80;;;;;;5021433;28;41864;-72
2023/09/25 11:41:30;;;;;;;7.60;2.00;;;25.20;90.90;;;;;;5058916;28;20052;-73
2023/09/25 11:43:56;;;;;;;9.55;2.25;;;25.50;91.20;;;;;;5016851;28;27222;-73
2023/09/25 11:46:22;;;;;;;8.27;2.45;;;25.90;91.20;;;;;;5050215;28;20064;-73
2023/09/25 11:48:49;;;;;;;8.82;2.10;;;25.90;90.70;;;;;;5009975;28;116609;-73
2023/09/25 11:51:15;;;;;;;9.85;2.45;;;25.60;90.90;;;;;;5056555;28;20053;-73
2023/09/25 11:53:41;;;;;;;8.98;2.13;;;25.30;90.90;;;;;;4999097;28;104566;-72
2023/09/25 11:56:07;;;;;;;6.75;1.83;;;25.00;91.20;;;;;;5057386;28;20067;-71
2023/09/25 11:58:33;;;;;;;11.02;3.10;;;24.60;90.60;;;;;;5018141;28;20054;-73
2023/09/25 12:00:59;;;;;;;9.00;1.90;;;24.30;91.10;;;;;;5061770;28;20059;-72
2023/09/25 12:03:26;;;;;;;7.20;2.10;;;24.00;91.20;;;;;;5008812;28;136124;-73
2023/09/25 12:05:52;;;;;;;8.23;2.10;;;23.40;91.80;;;;;;5044131;28;20063;-74
2023/09/25 12:08:18;;;;;;;8.85;2.25;;;23.20;91.70;;;;;;5016828;28;182588;-72
2023/09/25 12:10:45;;;;;;;8.35;2.25;;;23.10;91.90;;;;;;5052497;28;20070;-72
2023/09/25 12:13:11;;;;;;;7.38;2.00;;;22.90;92.30;;;;;;5017716;28;249944;-73
2023/09/25 12:15:37;;;;;;;6.88;1.70;;;23.00;92.40;;;;;;5076225;28;20079;-73
2023/09/25 12:18:03;;;;;;;8.43;2.00;;;23.50;92.50;;;;;;5021633;28;44428;-72
2023/09/25 12:20:30;;;;;;;9.15;1.80;;;24.10;92.60;;;;;;5068459;28;20511;-72
2023/09/25 12:22:56;;;;;;;7.93;2.13;;;24.60;91.80;;;;;;5016027;28;175553;-72
2023/09/25 12:25:22;;;;;;;7.13;1.90;;;24.70;91.90;;;;;;5052767;28;20044;-73
2023/09/25 12:27:48;;;;;;;8.85;2.08;;;24.60;91.40;;;;;;5015080;28;142146;-72
2023/09/25 12:30:17;;;;;;;6.93;1.90;;;24.50;91.50;;;;;;5060192;28;20048;-71
2023/09/25 12:32:45;;;;;;;7.85;1.90;;;24.30;90.80;;;;;;5003929;28;167944;-71
2023/09/25 12:35:15;;;;;;;8.20;1.88;;;24.10;91.60;;;;;;5038322;28;20068;-72
2023/09/25 12:37:52;;;;;;;7.68;2.10;;;24.40;92.00;;;;;;5034662;28;20068;-71
2023/09/25 12:40:18;;;;;;;8.20;2.22;;;24.70;91.20;;;;;;5034877;28;20052;-71
2023/09/25 12:42:45;;;;;;;7.05;1.90;;;24.50;91.20;;;;;;5019909;28;167863;-72